createdAt,value
2019-04-30T00:01:38.429Z,16.40
2019-04-30T00:04:21.351Z,16.40
2019-04-30T00:06:50.417Z,16.30
2019-04-30T00:09:22.354Z,16.30
2019-04-30T00:11:57.888Z,16.30
2019-04-30T00:14:21.977Z,16.40
2019-04-30T00:16:50.894Z,16.40
2019-04-30T00:19:20.034Z,16.40
2019-04-30T00:21:57.033Z,16.40
2019-04-30T00:24:19.653Z,16.40
2019-04-30T00:26:52.210Z,16.40
2019-04-30T00:29:26.932Z,16.50
2019-04-30T00:31:49.846Z,16.50
2019-04-30T00:34:18.680Z,16.50
2019-04-30T00:36:47.625Z,16.50
2019-04-30T00:39:16.810Z,16.40
2019-04-30T00:41:47.388Z,16.50
2019-04-30T00:44:19.892Z,16.40
2019-04-30T00:46:48.009Z,16.40
2019-04-30T00:49:22.852Z,16.30
2019-04-30T00:51:49.771Z,16.30
2019-04-30T00:54:22.556Z,16.40
2019-04-30T00:56:49.210Z,16.40
2019-04-30T00:59:18.137Z,16.40
2019-04-30T01:02:06.175Z,16.40
2019-04-30T01:04:40.454Z,16.40
2019-04-30T01:07:10.278Z,16.40
2019-04-30T01:09:46.512Z,16.40
2019-04-30T01:12:12.004Z,16.40
2019-04-30T01:14:41.138Z,16.40
2019-04-30T01:17:12.255Z,16.40
2019-04-30T01:19:40.859Z,16.40
2019-04-30T01:22:09.848Z,16.40
2019-04-30T01:24:38.898Z,16.40
2019-04-30T01:27:10.404Z,16.40
2019-04-30T01:29:44.142Z,16.40
2019-04-30T01:32:10.449Z,16.40
2019-04-30T01:34:44.227Z,16.40
2019-04-30T01:37:10.834Z,16.40
2019-04-30T01:39:39.781Z,16.30
2019-04-30T01:42:11.430Z,16.30
2019-04-30T01:44:43.365Z,16.30
2019-04-30T01:47:09.917Z,16.30
2019-04-30T01:49:42.716Z,16.40
2019-04-30T01:52:09.620Z,16.40
2019-04-30T01:54:39.182Z,16.40
2019-04-30T01:57:30.678Z,16.40
2019-04-30T02:00:24.543Z,16.40
2019-04-30T02:02:53.517Z,16.40
2019-04-30T02:05:22.586Z,16.50
2019-04-30T02:07:51.637Z,16.40
2019-04-30T02:10:20.781Z,16.40
2019-04-30T02:12:49.751Z,16.40
2019-04-30T02:15:19.234Z,16.30
2019-04-30T02:17:50.382Z,16.40
2019-04-30T02:20:19.551Z,16.40
2019-04-30T02:22:48.725Z,16.40
2019-04-30T02:25:19.399Z,16.40
2019-04-30T02:27:48.963Z,16.40
2019-04-30T02:30:20.943Z,16.40
2019-04-30T02:32:52.109Z,16.30
2019-04-30T02:35:40.878Z,16.30
2019-04-30T02:38:26.464Z,16.40
2019-04-30T02:40:56.436Z,16.40
2019-04-30T02:43:29.875Z,16.40
2019-04-30T02:45:59.934Z,16.30
2019-04-30T02:48:31.568Z,16.30
2019-04-30T02:51:03.547Z,16.30
2019-04-30T02:54:06.317Z,16.30
2019-04-30T02:56:35.361Z,16.30
2019-04-30T02:59:04.471Z,16.40
2019-04-30T03:01:33.410Z,16.40
2019-04-30T03:04:02.351Z,16.40
2019-04-30T03:06:31.196Z,16.40
2019-04-30T03:09:01.057Z,16.40
2019-04-30T03:11:30.473Z,16.50
2019-04-30T03:13:59.638Z,16.40
2019-04-30T03:16:40.094Z,16.50
2019-04-30T03:19:19.510Z,16.40
2019-04-30T03:21:54.778Z,16.40
2019-04-30T03:24:23.705Z,16.40
2019-04-30T03:26:52.542Z,16.40
2019-04-30T03:29:23.890Z,16.40
2019-04-30T03:31:52.768Z,16.40
2019-04-30T03:34:25.610Z,16.40
2019-04-30T03:36:52.586Z,16.30
2019-04-30T03:39:21.584Z,16.30
2019-04-30T03:41:50.583Z,16.40
2019-04-30T03:44:25.605Z,16.40
2019-04-30T03:46:50.138Z,16.40
2019-04-30T03:49:20.326Z,16.40
2019-04-30T03:51:50.024Z,16.40
2019-04-30T03:54:19.638Z,16.40
2019-04-30T03:56:50.299Z,16.40
2019-04-30T03:59:20.054Z,16.40
2019-04-30T04:02:20.567Z,16.40
2019-04-30T04:05:25.452Z,16.40
2019-04-30T04:08:19.652Z,16.40
2019-04-30T04:11:21.264Z,16.50
2019-04-30T04:13:50.282Z,16.40
2019-04-30T04:16:19.565Z,16.40
2019-04-30T04:18:50.101Z,16.50
2019-04-30T04:21:20.593Z,16.60
2019-04-30T04:23:50.003Z,16.50
2019-04-30T04:26:20.229Z,16.50
2019-04-30T04:28:49.909Z,16.60
2019-04-30T04:31:19.513Z,16.50
2019-04-30T04:33:49.626Z,16.50
2019-04-30T04:36:20.015Z,16.50
2019-04-30T04:38:50.651Z,16.50
2019-04-30T04:41:20.243Z,16.50
2019-04-30T04:43:50.360Z,16.40
2019-04-30T04:46:20.510Z,16.40
2019-04-30T04:48:49.837Z,16.30
2019-04-30T04:51:31.450Z,16.30
2019-04-30T04:53:50.031Z,16.40
2019-04-30T04:56:19.329Z,16.40
2019-04-30T04:58:50.218Z,16.40
2019-04-30T05:01:20.405Z,16.30
2019-04-30T05:03:49.482Z,16.40
2019-04-30T05:06:21.892Z,16.40
2019-04-30T05:08:49.361Z,16.30
2019-04-30T05:11:19.253Z,16.20
2019-04-30T05:13:49.039Z,16.20
2019-04-30T05:16:19.136Z,16.20
2019-04-30T05:18:48.869Z,16.20
2019-04-30T05:21:18.805Z,16.20
2019-04-30T05:23:49.211Z,16.20
2019-04-30T05:26:19.106Z,16.20
2019-04-30T05:28:51.100Z,16.30
2019-04-30T05:31:20.993Z,16.30
2019-04-30T05:33:49.572Z,16.30
2019-04-30T05:36:19.173Z,16.30
2019-04-30T05:38:48.750Z,16.30
2019-04-30T05:41:19.316Z,16.30
2019-04-30T05:43:48.853Z,16.30
2019-04-30T05:46:19.618Z,16.30
2019-04-30T05:48:49.528Z,16.30
2019-04-30T05:51:21.162Z,16.30
2019-04-30T05:53:49.614Z,16.30
2019-04-30T05:56:19.289Z,16.30
2019-04-30T05:58:49.463Z,16.40
2019-04-30T06:01:19.627Z,16.40
2019-04-30T06:03:48.844Z,16.40
2019-04-30T06:06:19.312Z,16.40
2019-04-30T06:09:14.935Z,16.30
2019-04-30T06:12:14.741Z,16.30
2019-04-30T06:14:49.874Z,16.40
2019-04-30T06:17:19.805Z,16.30
2019-04-30T06:19:51.447Z,16.40
2019-04-30T06:22:19.759Z,16.40
2019-04-30T06:24:49.533Z,16.40
2019-04-30T06:27:19.357Z,16.40
2019-04-30T06:29:49.073Z,16.40
2019-04-30T06:32:18.669Z,16.40
2019-04-30T06:34:49.868Z,16.40
2019-04-30T06:37:19.651Z,16.40
2019-04-30T06:39:50.089Z,16.40
2019-04-30T06:42:21.999Z,16.40
2019-04-30T06:44:51.569Z,16.40
2019-04-30T06:47:32.504Z,16.30
2019-04-30T06:49:52.001Z,16.40
2019-04-30T06:52:23.500Z,16.50
2019-04-30T06:54:51.711Z,16.50
2019-04-30T06:57:20.538Z,16.60
2019-04-30T06:59:51.512Z,16.60
2019-04-30T07:02:20.163Z,16.80
2019-04-30T07:04:49.412Z,16.90
2019-04-30T07:07:22.981Z,16.90
2019-04-30T07:10:16.919Z,17.00
2019-04-30T07:12:49.144Z,17.00
2019-04-30T07:15:19.634Z,17.00
2019-04-30T07:17:49.250Z,17.00
2019-04-30T07:20:19.152Z,17.10
2019-04-30T07:22:52.352Z,17.10
2019-04-30T07:25:19.547Z,17.20
2019-04-30T07:27:50.593Z,17.20
2019-04-30T07:30:19.830Z,17.20
2019-04-30T07:32:48.932Z,17.20
2019-04-30T07:35:19.509Z,17.30
2019-04-30T07:37:49.692Z,17.20
2019-04-30T07:40:19.213Z,17.20
2019-04-30T07:42:49.236Z,17.20
2019-04-30T07:45:19.452Z,17.10
2019-04-30T07:47:49.433Z,17.10
2019-04-30T07:50:21.399Z,17.20
2019-04-30T07:55:20.118Z,17.30
2019-04-30T07:57:50.586Z,17.30
2019-04-30T08:00:19.843Z,17.40
2019-04-30T08:03:00.037Z,17.40
2019-04-30T08:05:35.950Z,17.40
2019-04-30T08:08:20.221Z,17.40
2019-04-30T08:09:35.523Z,17.20
2019-04-30T08:10:35.737Z,17.40
2019-04-30T08:13:10.524Z,17.30
2019-04-30T08:15:35.526Z,17.20
2019-04-30T08:18:05.918Z,17.10
2019-04-30T08:20:35.006Z,17.10
2019-04-30T08:23:15.686Z,17.10
2019-04-30T08:25:34.736Z,17.10
2019-04-30T08:28:03.643Z,17.10
2019-04-30T08:30:32.518Z,17.10
2019-04-30T08:33:01.573Z,17.10
2019-04-30T08:35:30.504Z,17.20
2019-04-30T08:37:59.337Z,17.10
2019-04-30T08:40:29.719Z,17.10
2019-04-30T08:42:59.492Z,17.20
2019-04-30T08:45:31.057Z,17.20
2019-04-30T08:47:59.617Z,17.10
2019-04-30T08:50:29.706Z,17.20
2019-04-30T08:52:59.762Z,17.10
2019-04-30T08:55:30.365Z,17.10
2019-04-30T08:58:09.617Z,17.10
2019-04-30T09:00:30.797Z,17.20
2019-04-30T09:02:59.794Z,17.20
2019-04-30T09:05:49.790Z,17.10
2019-04-30T09:08:19.412Z,17.10
2019-04-30T09:10:49.059Z,17.20
2019-04-30T09:13:19.173Z,17.20
2019-04-30T09:15:49.229Z,17.20
2019-04-30T09:18:19.157Z,17.10
2019-04-30T09:20:49.504Z,17.00
2019-04-30T09:23:18.838Z,17.00
2019-04-30T09:25:49.613Z,17.00
2019-04-30T09:28:19.871Z,17.10
2019-04-30T09:30:49.282Z,17.00
2019-04-30T09:33:19.457Z,17.00
2019-04-30T09:35:49.536Z,17.10
2019-04-30T09:38:19.516Z,17.10
2019-04-30T09:40:50.591Z,17.20
2019-04-30T09:43:19.463Z,17.10
2019-04-30T09:45:49.758Z,17.10
2019-04-30T09:48:19.174Z,17.10
2019-04-30T09:50:49.705Z,17.20
2019-04-30T09:53:19.905Z,17.10
2019-04-30T09:55:49.609Z,17.00
2019-04-30T09:58:21.188Z,17.10
2019-04-30T10:00:50.377Z,17.20
2019-04-30T10:03:20.734Z,17.20
2019-04-30T10:05:50.143Z,17.20
2019-04-30T10:08:20.880Z,17.20
2019-04-30T10:11:09.663Z,17.20
2019-04-30T10:13:38.351Z,17.20
2019-04-30T10:16:15.419Z,17.20
2019-04-30T10:18:44.288Z,17.30
2019-04-30T10:21:13.210Z,17.30
2019-04-30T10:23:42.219Z,17.20
2019-04-30T10:26:11.229Z,17.30
2019-04-30T10:28:43.815Z,17.30
2019-04-30T10:31:12.992Z,17.30
2019-04-30T10:33:42.008Z,17.30
2019-04-30T10:36:11.102Z,17.30
2019-04-30T10:38:40.070Z,17.40
2019-04-30T10:41:09.165Z,17.40
2019-04-30T10:43:39.304Z,17.40
2019-04-30T10:46:09.814Z,17.20
2019-04-30T10:48:38.972Z,17.30
2019-04-30T10:51:09.056Z,17.30
2019-04-30T10:53:38.423Z,17.30
2019-04-30T10:56:09.589Z,17.40
2019-04-30T10:58:38.221Z,17.40
2019-04-30T11:01:09.244Z,17.40
2019-04-30T11:03:39.136Z,17.40
2019-04-30T11:08:51.502Z,17.40
2019-04-30T11:11:20.439Z,17.40
2019-04-30T11:13:49.422Z,17.40
2019-04-30T11:16:18.922Z,17.40
2019-04-30T11:18:48.446Z,17.40
2019-04-30T11:21:19.748Z,17.30
2019-04-30T11:23:49.478Z,17.30
2019-04-30T11:26:19.352Z,17.30
2019-04-30T11:28:49.037Z,17.30
2019-04-30T11:31:36.094Z,17.30
2019-04-30T11:34:06.582Z,17.30
2019-04-30T11:36:35.601Z,17.30
2019-04-30T11:39:08.635Z,17.30
2019-04-30T11:41:39.551Z,17.40
2019-04-30T11:44:09.286Z,17.50
2019-04-30T11:47:09.624Z,17.50
2019-04-30T11:49:38.885Z,17.50
2019-04-30T11:52:07.857Z,17.50
2019-04-30T11:54:48.481Z,17.50
2019-04-30T11:57:08.872Z,17.50
2019-04-30T11:59:39.530Z,17.50
2019-04-30T12:02:19.101Z,17.40
2019-04-30T12:04:49.482Z,17.50
2019-04-30T12:07:25.492Z,17.50
2019-04-30T12:10:16.556Z,17.50
2019-04-30T12:12:45.485Z,17.50
2019-04-30T12:15:14.578Z,17.50
2019-04-30T12:17:43.531Z,17.50
2019-04-30T12:20:12.593Z,17.50
2019-04-30T12:22:41.484Z,17.50
2019-04-30T12:25:10.461Z,17.60
2019-04-30T12:27:39.490Z,17.60
2019-04-30T12:30:09.528Z,17.60
2019-04-30T12:32:39.321Z,17.60
2019-04-30T12:35:08.897Z,17.60
2019-04-30T12:37:39.072Z,17.60
2019-04-30T12:40:10.808Z,17.60
2019-04-30T12:42:39.651Z,17.60
2019-04-30T12:45:09.495Z,17.60
2019-04-30T12:47:42.919Z,17.60
2019-04-30T12:50:39.223Z,17.60
2019-04-30T12:53:12.145Z,17.60
2019-04-30T12:56:09.920Z,17.60
2019-04-30T12:58:38.969Z,17.60
2019-04-30T13:01:09.042Z,17.60
2019-04-30T13:03:39.923Z,17.60
2019-04-30T13:06:11.095Z,17.60
2019-04-30T13:08:40.165Z,17.70
2019-04-30T13:11:12.847Z,17.70
2019-04-30T13:13:41.484Z,17.70
2019-04-30T13:16:10.984Z,17.60
2019-04-30T13:18:39.915Z,17.70
2019-04-30T13:21:08.948Z,17.70
2019-04-30T13:23:37.882Z,17.70
2019-04-30T13:26:08.803Z,17.70
2019-04-30T13:28:49.987Z,17.70
2019-04-30T13:31:19.310Z,17.70
2019-04-30T13:33:53.308Z,17.70
2019-04-30T13:36:22.995Z,17.70
2019-04-30T13:39:10.305Z,17.70
2019-04-30T13:41:46.138Z,17.70
2019-04-30T13:44:19.399Z,17.70
2019-04-30T13:46:48.138Z,17.70
2019-04-30T13:49:17.082Z,17.80
2019-04-30T13:51:46.005Z,17.70
2019-04-30T13:54:15.023Z,17.70
2019-04-30T13:56:43.939Z,17.70
2019-04-30T13:59:12.778Z,17.70
2019-04-30T14:01:41.812Z,17.70
2019-04-30T14:04:29.763Z,17.70
2019-04-30T14:07:14.961Z,17.70
2019-04-30T14:09:43.806Z,17.60
2019-04-30T14:12:12.706Z,17.70
2019-04-30T14:14:41.710Z,17.70
2019-04-30T14:17:10.689Z,17.60
2019-04-30T14:19:39.683Z,17.60
2019-04-30T14:22:09.856Z,17.60
2019-04-30T14:24:38.773Z,17.60
2019-04-30T14:27:09.022Z,17.60
2019-04-30T14:29:39.589Z,17.60
2019-04-30T14:32:08.766Z,17.60
2019-04-30T14:34:39.438Z,17.60
2019-04-30T14:37:08.381Z,17.60
2019-04-30T14:39:37.601Z,17.50
2019-04-30T14:42:10.302Z,17.50
2019-04-30T14:44:40.182Z,17.50
2019-04-30T14:47:30.361Z,17.50
2019-04-30T14:50:09.759Z,17.40
2019-04-30T14:53:03.951Z,17.40
2019-04-30T14:55:51.762Z,17.40
2019-04-30T14:58:49.216Z,17.40
2019-04-30T15:01:37.049Z,17.40
2019-04-30T15:04:06.055Z,17.40
2019-04-30T15:06:34.871Z,17.40
2019-04-30T15:09:04.677Z,17.40
2019-04-30T15:11:34.287Z,17.30
2019-04-30T15:14:03.273Z,17.40
2019-04-30T15:16:32.191Z,17.40
2019-04-30T15:19:01.054Z,17.50
2019-04-30T15:21:30.053Z,17.50
2019-04-30T15:24:06.207Z,17.50
2019-04-30T15:26:35.203Z,17.60
2019-04-30T15:29:11.730Z,17.60
2019-04-30T15:31:35.146Z,17.60
2019-04-30T15:34:11.106Z,17.50
2019-04-30T15:36:40.948Z,17.50
2019-04-30T15:39:30.849Z,17.50
2019-04-30T15:42:00.111Z,17.50
2019-04-30T15:44:29.110Z,17.50
2019-04-30T15:47:00.410Z,17.50
2019-04-30T15:49:28.878Z,17.40
2019-04-30T15:51:57.791Z,17.50
2019-04-30T15:54:26.801Z,17.50
2019-04-30T15:56:55.846Z,17.40
2019-04-30T15:59:35.414Z,17.40
2019-04-30T16:02:10.557Z,17.30
2019-04-30T16:04:57.262Z,17.30
2019-04-30T16:07:26.249Z,17.30
2019-04-30T16:10:20.634Z,17.30
2019-04-30T16:13:01.871Z,17.30
2019-04-30T16:15:30.890Z,17.40
2019-04-30T16:18:01.546Z,17.30
2019-04-30T16:20:30.454Z,17.30
2019-04-30T16:22:59.570Z,17.40
2019-04-30T16:25:30.306Z,17.40
2019-04-30T16:27:59.214Z,17.40
2019-04-30T16:30:28.914Z,17.40
2019-04-30T16:32:59.628Z,17.40
2019-04-30T16:35:29.532Z,17.30
2019-04-30T16:37:59.402Z,17.40
2019-04-30T16:40:29.052Z,17.40
2019-04-30T16:42:58.357Z,17.30
2019-04-30T16:45:28.980Z,17.30
2019-04-30T16:47:58.270Z,17.40
2019-04-30T16:50:27.219Z,17.30
2019-04-30T16:52:56.054Z,17.30
2019-04-30T16:55:24.922Z,17.30
2019-04-30T16:57:54.050Z,17.20
2019-04-30T17:00:24.634Z,17.30
2019-04-30T17:02:59.326Z,17.30
2019-04-30T17:05:40.330Z,17.30
2019-04-30T17:08:15.074Z,17.20
2019-04-30T17:10:52.995Z,17.20
2019-04-30T17:13:30.980Z,17.20
2019-04-30T17:16:06.939Z,17.30
2019-04-30T17:18:35.984Z,17.20
2019-04-30T17:21:04.978Z,17.20
2019-04-30T17:23:33.899Z,17.20
2019-04-30T17:26:02.902Z,17.20
2019-04-30T17:28:31.890Z,17.10
2019-04-30T17:31:00.764Z,17.10
2019-04-30T17:33:29.653Z,17.10
2019-04-30T17:35:58.665Z,17.10
2019-04-30T17:38:27.641Z,17.10
2019-04-30T17:40:56.607Z,17.10
2019-04-30T17:43:25.513Z,17.00
2019-04-30T17:45:54.461Z,17.00
2019-04-30T17:48:23.393Z,17.00
2019-04-30T17:50:52.554Z,17.00
2019-04-30T17:53:21.574Z,17.00
2019-04-30T17:55:50.615Z,17.00
2019-04-30T17:58:20.634Z,17.00
2019-04-30T18:00:53.782Z,17.00
2019-04-30T18:03:22.695Z,17.00
2019-04-30T18:05:51.589Z,16.90
2019-04-30T18:08:21.112Z,16.90
2019-04-30T18:10:50.325Z,16.90
2019-04-30T18:13:19.275Z,16.80
2019-04-30T18:15:48.452Z,16.80
2019-04-30T18:18:26.248Z,16.80
2019-04-30T18:21:09.039Z,16.80
2019-04-30T18:23:54.559Z,16.70
2019-04-30T18:26:23.575Z,16.70
2019-04-30T18:28:52.548Z,16.70
2019-04-30T18:31:21.478Z,16.70
2019-04-30T18:33:51.428Z,16.70
2019-04-30T18:36:20.632Z,16.60
2019-04-30T18:38:50.296Z,16.60
2019-04-30T18:41:19.536Z,16.60
2019-04-30T18:43:48.787Z,16.70
2019-04-30T18:46:19.159Z,16.70
2019-04-30T18:48:49.708Z,16.70
2019-04-30T18:51:32.878Z,16.70
2019-04-30T18:53:49.827Z,16.70
2019-04-30T18:56:19.192Z,16.70
2019-04-30T18:58:48.653Z,16.60
2019-04-30T19:01:18.042Z,16.60
2019-04-30T19:03:49.054Z,16.60
2019-04-30T19:06:25.768Z,16.50
2019-04-30T19:09:29.490Z,16.40
2019-04-30T19:12:25.783Z,16.40
2019-04-30T19:15:12.405Z,16.40
2019-04-30T19:17:53.693Z,16.40
2019-04-30T19:20:25.809Z,16.40
2019-04-30T19:22:54.717Z,16.40
2019-04-30T19:25:23.747Z,16.40
2019-04-30T19:27:52.647Z,16.40
2019-04-30T19:30:21.765Z,16.40
2019-04-30T19:32:50.665Z,16.30
2019-04-30T19:35:19.576Z,16.30
2019-04-30T19:37:48.772Z,16.40
2019-04-30T19:40:19.012Z,16.40
2019-04-30T19:42:50.752Z,16.40
2019-04-30T19:45:18.943Z,16.30
2019-04-30T19:47:48.975Z,16.30
2019-04-30T19:50:19.419Z,16.30
2019-04-30T19:52:48.562Z,16.30
2019-04-30T19:55:20.428Z,16.20
2019-04-30T19:57:48.389Z,16.20
2019-04-30T20:00:19.229Z,16.20
2019-04-30T20:02:48.658Z,16.20
2019-04-30T20:05:19.427Z,16.30
2019-04-30T20:07:49.330Z,16.30
2019-04-30T20:10:19.574Z,16.30
2019-04-30T20:12:49.752Z,16.20
2019-04-30T20:15:22.130Z,16.20
2019-04-30T20:17:49.985Z,16.20
2019-04-30T20:20:19.303Z,16.30
2019-04-30T20:22:48.231Z,16.20
2019-04-30T20:25:19.033Z,16.10
2019-04-30T20:27:49.580Z,16.20
2019-04-30T20:30:19.557Z,16.10
2019-04-30T20:32:49.061Z,16.10
2019-04-30T20:35:19.543Z,16.00
2019-04-30T20:38:06.277Z,16.00
2019-04-30T20:40:43.283Z,16.00
2019-04-30T20:48:51.849Z,16.00
2019-04-30T20:51:20.814Z,16.00
2019-04-30T20:53:49.918Z,16.10
2019-04-30T20:56:19.202Z,16.10
2019-04-30T20:58:55.622Z,16.10
2019-04-30T21:01:19.349Z,16.10
2019-04-30T21:03:48.626Z,16.10
2019-04-30T21:06:19.651Z,16.10
2019-04-30T21:08:48.213Z,16.10
2019-04-30T21:11:19.201Z,16.10
2019-04-30T21:13:49.129Z,16.20
2019-04-30T21:16:18.230Z,16.20
2019-04-30T21:18:47.185Z,16.20
2019-04-30T21:21:16.097Z,16.10
2019-04-30T21:23:45.004Z,16.00
2019-04-30T21:26:13.943Z,16.10
2019-04-30T21:28:42.881Z,16.10
2019-04-30T21:31:36.342Z,16.10
2019-04-30T21:34:29.326Z,16.10
2019-04-30T21:36:59.696Z,16.10
2019-04-30T21:39:28.695Z,16.00
2019-04-30T21:41:59.328Z,15.90
2019-04-30T21:44:28.293Z,15.90
2019-04-30T21:47:16.402Z,15.90
2019-04-30T21:49:45.290Z,15.90
2019-04-30T21:52:14.181Z,15.80
2019-04-30T21:54:43.118Z,15.80
2019-04-30T21:57:11.948Z,15.90
2019-04-30T21:59:40.886Z,15.90
2019-04-30T22:02:10.350Z,15.90
2019-04-30T22:04:39.301Z,16.00
2019-04-30T22:07:09.398Z,16.00
2019-04-30T22:09:38.820Z,16.00
2019-04-30T22:12:09.224Z,16.00
2019-04-30T22:14:38.557Z,16.00
2019-04-30T22:17:09.203Z,15.90
2019-04-30T22:19:38.340Z,15.90
2019-04-30T22:22:09.255Z,15.80
2019-04-30T22:24:38.848Z,15.80
2019-04-30T22:27:08.126Z,15.80
2019-04-30T22:29:39.914Z,15.80
2019-04-30T22:32:09.245Z,15.80
2019-04-30T22:34:38.357Z,15.90
2019-04-30T22:37:08.560Z,15.90
2019-04-30T22:39:45.536Z,16.00
2019-04-30T22:42:30.625Z,16.00
2019-04-30T22:45:00.274Z,16.00
2019-04-30T22:47:29.310Z,16.00
2019-04-30T22:49:58.225Z,16.00
2019-04-30T22:52:27.219Z,16.00
2019-04-30T22:54:56.210Z,16.00
2019-04-30T22:57:25.022Z,16.00
2019-04-30T22:59:53.981Z,16.00
2019-04-30T23:02:29.825Z,16.00
2019-04-30T23:04:59.099Z,16.00
2019-04-30T23:07:28.085Z,16.00
2019-04-30T23:09:57.056Z,16.00
2019-04-30T23:12:26.311Z,15.90
2019-04-30T23:14:55.163Z,15.90
2019-04-30T23:17:24.018Z,15.90
2019-04-30T23:19:53.068Z,15.90
2019-04-30T23:22:21.982Z,15.90
2019-04-30T23:24:50.882Z,15.90
2019-04-30T23:27:19.853Z,15.90
2019-04-30T23:29:48.859Z,15.90
2019-04-30T23:32:17.769Z,15.90
2019-04-30T23:34:46.607Z,15.90
2019-04-30T23:37:15.624Z,15.90
2019-04-30T23:39:44.546Z,15.90
2019-04-30T23:42:13.462Z,15.90
2019-04-30T23:44:42.283Z,15.80
2019-04-30T23:47:11.105Z,15.70
2019-04-30T23:49:39.964Z,15.80
2019-04-30T23:52:08.834Z,15.80
2019-04-30T23:54:37.783Z,15.90
2019-04-30T23:57:06.709Z,15.70
2019-04-30T23:59:35.555Z,15.70
